メインページ
METAR-TAF:

METAR-TAF

空港 :

マウント・プレザント空軍基地

スタンリー, フォークランド諸島

緯度: 51-49S, 経度: 058-27W, 海抜: 74m

現時点の気象観測

当レポートは1時間3分前の10:50(UTC)に作成
西の風 12kt
気温 3°C
湿度 81%
気圧 1009 hPa
視程10km以上
高度2000ftの雲はほとんどない
高度18000ftの雲は散在している

METAR: EGYP 221050Z 27012KT 9999 FEW020 SCT180 03/00 Q1009 BLU NOSIG

時間: 08:53 (11:53 UTC)

予報

当レポートは1時間48分前の10:05(UTC)に作成
予報は22日の 12時(UTC)から 23日の 06時(UTC)まで有効
西の風 12kt
視程10km以上
高度2500ftの雲は散在している
22日の 14時(UTC)から 23日の 03時(UTC)まで一時的に
高度1800ftの雲は散在している
22日の 19時(UTC)から 22日の 22時(UTC)まで徐々に
北西の風 15kt
確率 40% :
22日の 20時(UTC)から 23日の 06時(UTC)まで一時的に
視程: 7000m
弱いにわか雨
23日の 01時(UTC)から 23日の 03時(UTC)まで徐々に
西の風 10kt

TAF: EGYP 221005Z 2212/2306 27012KT 9999 SCT025 TEMPO 2214/2303 SCT018 BECMG 2219/2222 31015KT PROB40 TEMPO 2220/2306 7000 -SHRA BECMG 2301/2303 28010KT

4,000以上の空港の気象観測と天気予報(METAR報とTAF報)

利用可能な観測所は地図上に黄色い丸と赤い丸で示す。

丸の上にカーソルを重ねると観測所名を参照できる。

次にクリックすると気象観測と天気予報を参照できる。

マップの切り替え:黒色「×」印の緑ボタンをクリックして拡大、「-」印の緑ボタンをクリックして縮小、緑色の三角印をクリックして隣りの地図に切り替え


METAR-TAF: